DAAV

Jijel Ferhat Abbas Airport

Jijel, Algeria
METAR DAAV 212300Z 14003KT 9999 FEW023 SCT030 22/20 Q1016
Observed Flight Rules
Jun-21 @ 23:00 UTC (55 minutes ago) Visual Flight Rules
Wind Visibility Clouds
140° at 3 knots 10,000+ meters
  • Few at 2,300' AGL
  • Scattered at 3,000' AGL
Temperatures Readings
Current 22°C / 72°F
Dewpoint 20°C / 68°F
Humidity 88%
Altimeter 30" Hg
Pressure 1016 hPa
Elevation 11
METAR DAAV 212300Z 14003KT 9999 FEW023 SCT030 22/20 Q1016
Observed Flight Rules
Jun-21 @ 23:00 UTC
(55 minutes ago)
VFR
Wind Visibility
140° at 3 knots 10,000+ meters
Clouds
  • Few at 2,300' AGL
  • Scattered at 3,000' AGL
Temperature Dewpoint
22°C / 72°F 20°C / 68°F
Humidity Altimeter Pressure
88% 30" Hg 1016 hPa